KPOU/POU METAR and TAF weather

Enter ICAO airport designator
Station Type Date Time Source
KPOU METAR 2024/05/28 21:53 UTC NOAA

KPOU 282153Z 31014G22KT 10SM BKN060 BKN080 OVC095 23/13 A2972 RMK AO2 SLP058 T02280128


Station Type Date Time Source
KPOU Decoded METAR 2024/05/28 21:53 UTC NOAA

POUGHKEEPSIE DUTCHESS CTY, NY, United States (KPOU) 41-38N 073-53W 46M
May 28, 2024 - 05:53 PM EDT / 2024.05.28 2153 UTC
Wind: from the NW (310 degrees) at 16 MPH (14 KT) gusting to 25 MPH (22 KT):0
Visibility: 10 mile(s):0
Sky conditions: overcast
Temperature: 73.0 F (22.8 C)
Dew Point: 55.0 F (12.8 C)
Relative Humidity: 53%
Pressure (altimeter): 29.72 in. Hg (1006 hPa)
ob: KPOU 282153Z 31014G22KT 10SM BKN060 BKN080 OVC095 23/13 A2972 RMK AO2 SLP058 T02280128
cycle: 22

Station Type Date Time Source
KPOU TAF 2024/05/28 18:22 UTC NOAA